TAF Text Data
IDs:
Format:
Raw Decoded Include METAR

Data at: 0914 UTC 26 May 2019

KSLN 260853Z AUTO 01003KT 10SM CLR 17/16 A2997 RMK AO2 SLP140 T01670156 55002

KSLN 260520Z 2606/2706 14009KT P6SM SCT035 OVC100
  FM260900 15006KT P6SM VCSH SCT020 BKN035
  FM261700 16009KT P6SM SCT015 BKN020
  FM270200 16010KT P6SM SCT030 OVC080
  FM270400 17011KT P6SM SCT025 OVC040


KATW 260855Z AUTO 28006KT 10SM CLR 13/06 A2999 RMK AO2

KATW 260520Z 2606/2706 30006KT P6SM SKC
  FM260900 36004KT P6SM SKC
  FM261400 04006KT P6SM SCT040
  FM261700 10006KT P6SM SCT060
  FM262200 12004KT P6SM SCT250